Time;durP1;ratioP1;P1;durP2;ratioP2;P2;SDS_P1;SDS_P2;PMS_P1;PMS_P2;Temp;Humidity;BMP_temperature;BMP_pressure;BME280_temperature;BME280_humidity;BME280_pressure;Samples;Min_cycle;Max_cycle;Signal;HPM_P1;HPM_P2
2023/12/06 00:01:34;;;;;;;1.00;0.88;;;;;;;;;;5004103;28;20023;-79
2023/12/06 00:04:00;;;;;;;2.78;0.88;;;;;;;;;;5013837;28;20032;-80
2023/12/06 00:06:26;;;;;;;0.75;0.73;;;;;;;;;;5020267;28;20061;-79
2023/12/06 00:08:52;;;;;;;1.00;0.90;;;;;;;;;;5006596;28;20055;-79
2023/12/06 00:11:19;;;;;;;2.60;0.70;;;;;;;;;;5002847;28;20022;-79
2023/12/06 00:13:45;;;;;;;1.13;0.93;;;;;;;;;;5013126;28;20361;-79
2023/12/06 00:16:11;;;;;;;1.58;0.82;;;;;;;;;;5012646;28;20026;-79
2023/12/06 00:18:38;;;;;;;1.00;0.70;;;;;;;;;;5014480;28;20096;-79
2023/12/06 00:21:04;;;;;;;1.75;0.70;;;;;;;;;;5016034;28;20018;-79
2023/12/06 00:23:30;;;;;;;1.08;0.88;;;;;;;;;;5001200;28;20026;-80
2023/12/06 00:25:57;;;;;;;1.58;1.02;;;;;;;;;;4999143;28;20026;-80
2023/12/06 00:28:23;;;;;;;0.80;0.80;;;;;;;;;;5020094;28;20068;-80
2023/12/06 00:30:49;;;;;;;1.42;0.77;;;;;;;;;;5014864;28;20038;-80
2023/12/06 00:33:15;;;;;;;0.93;0.65;;;;;;;;;;4997737;28;20027;-80
2023/12/06 00:35:42;;;;;;;0.60;0.50;;;;;;;;;;5020929;28;20468;-80
2023/12/06 00:38:08;;;;;;;0.60;0.55;;;;;;;;;;5009886;28;20068;-80
2023/12/06 00:40:34;;;;;;;0.47;0.47;;;;;;;;;;5006942;28;20018;-80
2023/12/06 00:43:00;;;;;;;1.02;0.63;;;;;;;;;;5020518;28;20038;-80
2023/12/06 00:45:26;;;;;;;0.57;0.50;;;;;;;;;;5012298;28;20136;-80
2023/12/06 00:47:52;;;;;;;0.43;0.43;;;;;;;;;;5016457;28;20096;-80
2023/12/06 00:50:18;;;;;;;1.10;0.63;;;;;;;;;;5008260;28;20026;-80
2023/12/06 00:52:44;;;;;;;0.68;0.65;;;;;;;;;;4999350;28;20022;-81
2023/12/06 00:55:10;;;;;;;0.57;0.57;;;;;;;;;;5011048;28;20475;-80
2023/12/06 00:57:36;;;;;;;0.50;0.43;;;;;;;;;;5010923;28;20030;-80
2023/12/06 01:00:03;;;;;;;0.50;0.30;;;;;;;;;;5027603;28;20029;-81
2023/12/06 01:02:29;;;;;;;0.50;0.50;;;;;;;;;;5040111;28;20017;-80
2023/12/06 01:04:55;;;;;;;0.40;0.40;;;;;;;;;;5029022;28;20041;-80
2023/12/06 01:07:21;;;;;;;0.20;0.20;;;;;;;;;;5012027;28;20109;-80
2023/12/06 01:09:47;;;;;;;0.55;0.47;;;;;;;;;;5014885;28;20025;-80
2023/12/06 01:12:13;;;;;;;0.45;0.32;;;;;;;;;;5019546;28;20022;-81
2023/12/06 01:14:40;;;;;;;0.22;0.22;;;;;;;;;;5019346;28;20025;-80
2023/12/06 01:17:06;;;;;;;0.40;0.30;;;;;;;;;;5008500;28;20022;-79
2023/12/06 01:19:32;;;;;;;0.40;0.40;;;;;;;;;;5008317;28;20026;-80
2023/12/06 01:21:58;;;;;;;0.30;0.30;;;;;;;;;;5009367;28;20027;-80
2023/12/06 01:24:25;;;;;;;0.28;0.28;;;;;;;;;;5034410;28;20022;-80
2023/12/06 01:26:51;;;;;;;0.40;0.40;;;;;;;;;;5015115;28;20037;-80
2023/12/06 01:29:17;;;;;;;0.47;0.35;;;;;;;;;;5015588;28;20022;-81
2023/12/06 01:31:43;;;;;;;0.43;0.30;;;;;;;;;;5008450;28;20038;-81
2023/12/06 01:34:09;;;;;;;0.40;0.20;;;;;;;;;;5019299;28;20022;-80
2023/12/06 01:36:35;;;;;;;0.32;0.25;;;;;;;;;;5017837;28;20030;-80
2023/12/06 01:39:02;;;;;;;0.30;0.30;;;;;;;;;;5010535;28;20173;-80
2023/12/06 01:41:28;;;;;;;0.17;0.17;;;;;;;;;;5008966;28;20026;-81
2023/12/06 01:43:54;;;;;;;0.10;0.10;;;;;;;;;;5014764;28;20038;-80
2023/12/06 01:46:20;;;;;;;0.20;0.20;;;;;;;;;;5006548;28;20030;-81
2023/12/06 01:48:47;;;;;;;0.32;0.10;;;;;;;;;;5034721;28;20053;-81
2023/12/06 01:51:15;;;;;;;0.15;0.10;;;;;;;;;;5016347;28;20113;-81
2023/12/06 01:53:41;;;;;;;0.50;0.20;;;;;;;;;;5040927;28;20041;-81
2023/12/06 01:56:07;;;;;;;0.10;0.10;;;;;;;;;;5034907;28;20082;-81
2023/12/06 01:58:35;;;;;;;0.38;0.30;;;;;;;;;;5040400;28;20021;-81
2023/12/06 02:01:02;;;;;;;0.30;0.30;;;;;;;;;;5025293;28;20034;-80
2023/12/06 02:03:28;;;;;;;0.10;0.10;;;;;;;;;;5015913;28;20444;-80
2023/12/06 02:05:54;;;;;;;0.20;0.10;;;;;;;;;;5029845;28;20051;-80
2023/12/06 02:08:21;;;;;;;0.10;0.10;;;;;;;;;;5018917;28;20022;-80
2023/12/06 02:10:47;;;;;;;0.10;0.10;;;;;;;;;;5012914;28;20184;-80
2023/12/06 02:13:13;;;;;;;0.10;0.10;;;;;;;;;;5010197;28;20026;-80
2023/12/06 02:15:39;;;;;;;0.13;0.10;;;;;;;;;;5013846;28;20029;-80
2023/12/06 02:18:05;;;;;;;0.25;0.25;;;;;;;;;;5007617;28;20396;-80
2023/12/06 02:20:31;;;;;;;0.10;0.10;;;;;;;;;;5012502;28;20037;-80
2023/12/06 02:23:01;;;;;;;0.20;0.20;;;;;;;;;;5024711;28;20030;-80
2023/12/06 02:25:27;;;;;;;0.35;0.20;;;;;;;;;;5010360;28;20117;-79
2023/12/06 02:27:53;;;;;;;0.10;0.10;;;;;;;;;;5030644;28;20026;-80
2023/12/06 02:30:19;;;;;;;0.10;0.10;;;;;;;;;;5015163;28;20030;-80
2023/12/06 02:32:46;;;;;;;0.25;0.10;;;;;;;;;;5006416;28;20021;-80
2023/12/06 02:35:15;;;;;;;0.20;0.20;;;;;;;;;;5022682;28;20025;-80
2023/12/06 02:37:42;;;;;;;0.40;0.20;;;;;;;;;;5008436;28;20168;-81
2023/12/06 02:40:10;;;;;;;0.10;0.10;;;;;;;;;;5004533;28;20442;-81
2023/12/06 02:42:36;;;;;;;0.10;0.10;;;;;;;;;;5015602;28;20022;-81
2023/12/06 02:45:02;;;;;;;0.20;0.10;;;;;;;;;;5014177;28;20033;-80
2023/12/06 02:47:29;;;;;;;0.20;0.20;;;;;;;;;;5005331;28;20419;-80
2023/12/06 02:49:55;;;;;;;0.10;0.10;;;;;;;;;;5009209;28;20029;-80
2023/12/06 02:52:21;;;;;;;0.17;0.10;;;;;;;;;;5016275;28;20086;-80
2023/12/06 02:54:47;;;;;;;0.20;0.10;;;;;;;;;;5029046;28;20108;-81
2023/12/06 02:57:13;;;;;;;0.10;0.10;;;;;;;;;;5021601;28;20022;-80
2023/12/06 02:59:40;;;;;;;0.20;0.10;;;;;;;;;;5010833;28;20026;-80
2023/12/06 03:02:06;;;;;;;0.00;0.00;;;;;;;;;;5018708;28;20028;-81
2023/12/06 03:04:32;;;;;;;0.20;0.20;;;;;;;;;;5020940;28;20025;-81
2023/12/06 03:06:58;;;;;;;0.25;0.10;;;;;;;;;;5027844;28;20026;-81
2023/12/06 03:09:24;;;;;;;0.22;0.10;;;;;;;;;;5010660;28;21444;-81
2023/12/06 03:11:50;;;;;;;0.30;0.17;;;;;;;;;;5009690;28;20045;-81
2023/12/06 03:14:17;;;;;;;0.10;0.10;;;;;;;;;;5011792;28;20337;-81
2023/12/06 03:16:43;;;;;;;0.35;0.13;;;;;;;;;;5001723;28;20037;-81
2023/12/06 03:19:09;;;;;;;0.43;0.20;;;;;;;;;;4998001;28;20041;-81
2023/12/06 03:21:35;;;;;;;0.00;0.00;;;;;;;;;;5002685;28;20037;-81
2023/12/06 03:24:01;;;;;;;0.20;0.20;;;;;;;;;;5003543;28;20023;-81
2023/12/06 03:26:27;;;;;;;0.10;0.10;;;;;;;;;;5026487;28;20449;-80
2023/12/06 03:28:53;;;;;;;0.20;0.20;;;;;;;;;;5030141;28;20029;-80
2023/12/06 03:31:19;;;;;;;0.10;0.10;;;;;;;;;;5010950;28;20064;-79
2023/12/06 03:33:45;;;;;;;0.10;0.10;;;;;;;;;;5008199;28;20014;-79
2023/12/06 03:36:12;;;;;;;0.57;0.20;;;;;;;;;;5004571;28;20032;-80
2023/12/06 03:38:39;;;;;;;0.20;0.10;;;;;;;;;;5002690;28;20077;-79
2023/12/06 03:41:05;;;;;;;1.13;0.32;;;;;;;;;;5001768;28;20041;-81
2023/12/06 03:43:31;;;;;;;0.10;0.10;;;;;;;;;;5003162;28;20026;-80
2023/12/06 03:45:58;;;;;;;0.75;0.30;;;;;;;;;;5006676;28;20188;-80
2023/12/06 03:48:24;;;;;;;0.40;0.20;;;;;;;;;;5008417;28;20026;-82
2023/12/06 03:50:50;;;;;;;0.20;0.20;;;;;;;;;;5026767;28;20038;-81
2023/12/06 03:53:16;;;;;;;0.25;0.20;;;;;;;;;;5021961;28;20090;-79
2023/12/06 03:55:42;;;;;;;0.80;0.25;;;;;;;;;;5006678;28;20027;-80
2023/12/06 03:58:08;;;;;;;0.30;0.20;;;;;;;;;;5014023;28;20081;-79
2023/12/06 04:00:34;;;;;;;0.43;0.10;;;;;;;;;;5003877;28;20037;-81
2023/12/06 04:03:00;;;;;;;0.10;0.10;;;;;;;;;;5016422;28;20025;-81
2023/12/06 04:05:26;;;;;;;0.10;0.10;;;;;;;;;;5017009;28;20025;-81
2023/12/06 04:07:52;;;;;;;0.13;0.10;;;;;;;;;;5025174;28;20049;-80
2023/12/06 04:10:19;;;;;;;0.28;0.25;;;;;;;;;;5006047;28;20030;-82
2023/12/06 04:12:45;;;;;;;0.17;0.13;;;;;;;;;;5021843;28;20033;-81
2023/12/06 04:15:11;;;;;;;0.10;0.10;;;;;;;;;;5008253;28;20109;-81
2023/12/06 04:17:37;;;;;;;0.32;0.17;;;;;;;;;;5005390;28;20101;-82
2023/12/06 04:20:05;;;;;;;0.10;0.10;;;;;;;;;;5018379;28;20091;-82
2023/12/06 04:22:31;;;;;;;0.85;0.30;;;;;;;;;;5005839;28;20040;-77
2023/12/06 04:24:57;;;;;;;0.17;0.17;;;;;;;;;;5000827;28;20031;-80
2023/12/06 04:27:24;;;;;;;0.10;0.10;;;;;;;;;;5012522;28;20080;-80
2023/12/06 04:29:50;;;;;;;0.38;0.20;;;;;;;;;;5020083;28;20037;-82
2023/12/06 04:32:16;;;;;;;1.15;0.20;;;;;;;;;;5020007;28;20067;-81
2023/12/06 04:35:09;;;;;;;0.17;0.17;;;;;;;;;;5013809;28;20022;-81
2023/12/06 04:37:35;;;;;;;1.17;0.40;;;;;;;;;;5012641;28;20049;-81
2023/12/06 04:40:01;;;;;;;1.48;0.30;;;;;;;;;;5021020;28;20018;-81
2023/12/06 04:42:28;;;;;;;0.85;0.30;;;;;;;;;;5009791;28;20046;-81
2023/12/06 04:44:54;;;;;;;0.35;0.30;;;;;;;;;;5018640;28;20061;-80
2023/12/06 04:47:20;;;;;;;0.75;0.30;;;;;;;;;;5015063;28;20029;-81
2023/12/06 04:49:46;;;;;;;0.98;0.50;;;;;;;;;;5013173;28;20026;-79
2023/12/06 04:52:13;;;;;;;0.30;0.30;;;;;;;;;;5032921;28;20025;-80
2023/12/06 04:54:39;;;;;;;0.60;0.30;;;;;;;;;;5020550;28;20133;-81
2023/12/06 04:57:05;;;;;;;0.80;0.43;;;;;;;;;;5020990;28;20396;-81
2023/12/06 04:59:32;;;;;;;0.30;0.30;;;;;;;;;;5021788;28;20026;-81
2023/12/06 05:01:58;;;;;;;0.60;0.35;;;;;;;;;;5037929;28;20029;-81
2023/12/06 05:04:24;;;;;;;0.28;0.28;;;;;;;;;;5024486;28;20042;-81
2023/12/06 05:06:50;;;;;;;2.20;0.88;;;;;;;;;;5024486;28;20192;-81
2023/12/06 05:09:16;;;;;;;2.70;2.05;;;;;;;;;;5017736;28;20082;-81
2023/12/06 05:11:42;;;;;;;3.78;2.10;;;;;;;;;;5009802;28;20038;-81
2023/12/06 05:14:08;;;;;;;2.67;1.90;;;;;;;;;;5032844;28;20085;-81
2023/12/06 05:16:34;;;;;;;1.83;1.30;;;;;;;;;;5037740;28;20013;-80
2023/12/06 05:19:00;;;;;;;2.35;1.38;;;;;;;;;;5027735;28;20503;-80
2023/12/06 05:21:27;;;;;;;1.55;0.90;;;;;;;;;;5026542;28;20033;-82
2023/12/06 05:23:53;;;;;;;0.88;0.60;;;;;;;;;;5030303;28;20108;-81
2023/12/06 05:26:19;;;;;;;0.65;0.60;;;;;;;;;;5015770;28;20055;-81
2023/12/06 05:28:45;;;;;;;0.70;0.70;;;;;;;;;;5009929;28;20466;-81
2023/12/06 05:31:11;;;;;;;2.50;0.57;;;;;;;;;;5035940;28;20033;-81
2023/12/06 05:33:38;;;;;;;0.38;0.38;;;;;;;;;;5023964;28;20041;-81
2023/12/06 05:36:07;;;;;;;0.30;0.30;;;;;;;;;;5033985;28;20033;-80
2023/12/06 05:38:33;;;;;;;0.52;0.38;;;;;;;;;;5021318;28;20433;-79
2023/12/06 05:40:59;;;;;;;1.08;0.57;;;;;;;;;;5029968;28;20042;-81
2023/12/06 05:43:25;;;;;;;1.33;0.40;;;;;;;;;;5022676;28;20040;-82
2023/12/06 05:45:51;;;;;;;0.30;0.30;;;;;;;;;;5019632;28;20025;-81
2023/12/06 05:48:17;;;;;;;2.05;0.40;;;;;;;;;;5022413;28;20040;-80
2023/12/06 05:50:43;;;;;;;0.80;0.52;;;;;;;;;;5036080;28;20021;-80
2023/12/06 05:53:09;;;;;;;1.10;0.60;;;;;;;;;;5053711;28;20126;-81
2023/12/06 05:55:35;;;;;;;0.52;0.20;;;;;;;;;;5036146;28;20025;-81
2023/12/06 05:58:02;;;;;;;0.35;0.25;;;;;;;;;;5053773;28;20013;-80
2023/12/06 06:00:29;;;;;;;1.17;0.40;;;;;;;;;;5055542;28;20072;-80
2023/12/06 06:02:58;;;;;;;0.40;0.40;;;;;;;;;;5054716;28;20018;-80
2023/12/06 06:05:24;;;;;;;1.10;0.57;;;;;;;;;;5040262;28;20029;-82
2023/12/06 06:07:50;;;;;;;0.30;0.30;;;;;;;;;;5039775;28;20078;-82
2023/12/06 06:10:16;;;;;;;0.40;0.40;;;;;;;;;;5041137;28;20037;-81
2023/12/06 06:12:42;;;;;;;3.05;0.57;;;;;;;;;;5041465;28;20025;-81
2023/12/06 06:15:08;;;;;;;0.65;0.63;;;;;;;;;;5005204;28;20022;-81
2023/12/06 06:17:38;;;;;;;1.38;0.40;;;;;;;;;;5026176;28;20119;-82
2023/12/06 06:20:05;;;;;;;0.55;0.50;;;;;;;;;;5023628;28;20036;-81
2023/12/06 06:22:31;;;;;;;0.90;0.70;;;;;;;;;;5034980;28;20029;-80
2023/12/06 06:24:57;;;;;;;0.40;0.40;;;;;;;;;;5039643;28;20021;-81
2023/12/06 06:27:24;;;;;;;2.28;0.90;;;;;;;;;;5034003;28;20116;-81
2023/12/06 06:29:50;;;;;;;0.95;0.85;;;;;;;;;;5025011;28;20117;-81
2023/12/06 06:32:16;;;;;;;1.15;0.52;;;;;;;;;;5027924;28;20025;-81
2023/12/06 06:34:42;;;;;;;1.38;0.68;;;;;;;;;;5032539;28;20057;-81
2023/12/06 06:37:10;;;;;;;2.92;0.60;;;;;;;;;;5033446;28;20045;-80
2023/12/06 06:39:36;;;;;;;2.08;0.60;;;;;;;;;;5031781;28;20021;-81
2023/12/06 06:42:02;;;;;;;1.02;0.80;;;;;;;;;;5032371;28;20034;-81
2023/12/06 06:44:29;;;;;;;0.77;0.65;;;;;;;;;;5032905;28;20021;-81
2023/12/06 06:46:55;;;;;;;1.25;0.68;;;;;;;;;;5023574;28;20037;-81
2023/12/06 06:49:22;;;;;;;0.82;0.80;;;;;;;;;;5022696;28;20381;-80
2023/12/06 06:51:48;;;;;;;2.50;0.80;;;;;;;;;;5019689;28;20409;-80
2023/12/06 06:54:14;;;;;;;0.77;0.77;;;;;;;;;;5019457;28;20022;-80
2023/12/06 06:56:40;;;;;;;1.10;0.63;;;;;;;;;;5019964;28;20026;-82
2023/12/06 06:59:06;;;;;;;2.55;0.80;;;;;;;;;;5022986;28;20041;-80
2023/12/06 07:01:32;;;;;;;0.88;0.55;;;;;;;;;;5025673;28;20045;-80
2023/12/06 07:03:58;;;;;;;0.98;0.70;;;;;;;;;;5028870;28;20054;-81
2023/12/06 07:06:24;;;;;;;0.60;0.57;;;;;;;;;;5027452;28;20042;-80
2023/12/06 07:08:50;;;;;;;1.20;0.70;;;;;;;;;;5025786;28;20026;-80
2023/12/06 07:11:16;;;;;;;0.73;0.50;;;;;;;;;;5028605;28;20033;-80
2023/12/06 07:13:42;;;;;;;1.55;0.70;;;;;;;;;;5043101;28;20029;-82
2023/12/06 07:16:10;;;;;;;1.17;0.70;;;;;;;;;;5046366;28;20025;-81
2023/12/06 07:18:36;;;;;;;0.52;0.35;;;;;;;;;;5040785;28;20033;-80
2023/12/06 07:21:03;;;;;;;0.40;0.40;;;;;;;;;;5044221;28;20045;-81
2023/12/06 07:23:35;;;;;;;1.23;0.63;;;;;;;;;;5041246;28;20056;-80
2023/12/06 07:28:35;;;;;;;1.38;0.90;;;;;;;;;;5028591;28;20049;-80
2023/12/06 07:31:02;;;;;;;1.05;0.70;;;;;;;;;;5016019;28;20046;-81
2023/12/06 07:33:28;;;;;;;0.88;0.70;;;;;;;;;;5011988;28;20102;-83
2023/12/06 07:35:54;;;;;;;0.90;0.73;;;;;;;;;;5020305;28;20022;-81
2023/12/06 07:38:20;;;;;;;0.50;0.45;;;;;;;;;;5016523;28;20045;-83
2023/12/06 07:40:47;;;;;;;0.50;0.50;;;;;;;;;;5024096;28;20049;-83
2023/12/06 07:43:13;;;;;;;0.70;0.47;;;;;;;;;;5015185;28;20050;-81
2023/12/06 07:45:39;;;;;;;1.08;0.60;;;;;;;;;;5013161;28;20181;-82
2023/12/06 07:48:06;;;;;;;0.52;0.52;;;;;;;;;;5046005;28;20030;-82
2023/12/06 07:50:32;;;;;;;0.95;0.60;;;;;;;;;;5038747;28;20032;-79
2023/12/06 07:52:58;;;;;;;0.63;0.63;;;;;;;;;;5030832;28;20018;-80
2023/12/06 07:55:24;;;;;;;1.08;0.45;;;;;;;;;;5030582;28;20014;-82
2023/12/06 07:57:50;;;;;;;0.70;0.60;;;;;;;;;;5022565;28;20026;-81
2023/12/06 08:00:18;;;;;;;0.68;0.38;;;;;;;;;;5023172;28;20117;-81
2023/12/06 08:02:44;;;;;;;0.35;0.25;;;;;;;;;;5022541;28;20030;-81
2023/12/06 08:05:10;;;;;;;0.63;0.63;;;;;;;;;;5030173;28;20036;-80
2023/12/06 08:07:37;;;;;;;0.13;0.13;;;;;;;;;;5022956;28;20022;-81
2023/12/06 08:10:08;;;;;;;1.08;0.65;;;;;;;;;;5022370;28;20029;-81
2023/12/06 08:12:34;;;;;;;0.45;0.45;;;;;;;;;;5022464;28;20045;-80
2023/12/06 08:15:01;;;;;;;0.63;0.50;;;;;;;;;;5022066;28;20034;-81
2023/12/06 08:17:28;;;;;;;0.63;0.38;;;;;;;;;;5022277;28;20006;-81
2023/12/06 08:19:54;;;;;;;0.93;0.70;;;;;;;;;;5022551;28;20085;-82
2023/12/06 08:22:20;;;;;;;0.40;0.40;;;;;;;;;;5022799;28;20034;-81
2023/12/06 08:24:46;;;;;;;0.70;0.65;;;;;;;;;;5029103;28;20037;-81
2023/12/06 08:27:12;;;;;;;0.57;0.30;;;;;;;;;;5036692;28;20033;-80
2023/12/06 08:29:38;;;;;;;0.60;0.52;;;;;;;;;;5026684;28;20209;-80
2023/12/06 08:32:05;;;;;;;2.58;0.70;;;;;;;;;;5020232;28;20068;-80
2023/12/06 08:34:31;;;;;;;0.50;0.40;;;;;;;;;;5033345;28;20457;-78
2023/12/06 08:36:57;;;;;;;0.20;0.20;;;;;;;;;;5017531;28;20011;-80
2023/12/06 08:39:23;;;;;;;0.30;0.30;;;;;;;;;;5030828;28;20045;-80
2023/12/06 08:41:49;;;;;;;0.50;0.43;;;;;;;;;;5025352;28;20636;-80
2023/12/06 08:44:15;;;;;;;2.17;0.30;;;;;;;;;;5020157;28;20106;-80
2023/12/06 08:46:42;;;;;;;0.45;0.40;;;;;;;;;;5033343;28;20031;-79
2023/12/06 08:49:08;;;;;;;1.08;0.70;;;;;;;;;;5046019;28;20081;-79
2023/12/06 08:51:34;;;;;;;2.10;0.65;;;;;;;;;;5039121;28;20046;-79
2023/12/06 08:54:00;;;;;;;0.80;0.40;;;;;;;;;;5017393;28;20034;-80
2023/12/06 08:56:27;;;;;;;0.28;0.22;;;;;;;;;;5022667;28;20019;-81
2023/12/06 08:58:53;;;;;;;0.95;0.63;;;;;;;;;;5033097;28;20037;-80
2023/12/06 09:01:19;;;;;;;0.47;0.22;;;;;;;;;;5038759;28;20036;-80
2023/12/06 09:03:45;;;;;;;0.80;0.35;;;;;;;;;;5024260;28;20015;-81
2023/12/06 09:06:11;;;;;;;3.05;1.15;;;;;;;;;;5020862;28;20034;-81
2023/12/06 09:08:38;;;;;;;1.83;1.10;;;;;;;;;;5055296;28;20034;-82
2023/12/06 09:11:04;;;;;;;1.65;0.98;;;;;;;;;;5019661;28;20046;-83
2023/12/06 09:13:30;;;;;;;0.95;0.70;;;;;;;;;;5035444;28;20041;-81
2023/12/06 09:15:56;;;;;;;0.63;0.50;;;;;;;;;;5021049;28;20041;-83
2023/12/06 09:18:23;;;;;;;0.60;0.60;;;;;;;;;;5019301;28;20109;-82
2023/12/06 09:20:49;;;;;;;0.82;0.65;;;;;;;;;;5033481;28;20122;-82
2023/12/06 09:23:15;;;;;;;0.80;0.60;;;;;;;;;;5019255;28;20050;-81
2023/12/06 09:25:41;;;;;;;0.88;0.70;;;;;;;;;;5019351;28;20049;-83
2023/12/06 09:28:07;;;;;;;0.75;0.50;;;;;;;;;;5036802;28;20037;-83
2023/12/06 09:30:34;;;;;;;1.10;0.50;;;;;;;;;;5019287;28;20037;-82
2023/12/06 09:33:00;;;;;;;1.20;0.70;;;;;;;;;;5018285;28;20041;-82
2023/12/06 09:35:26;;;;;;;1.00;0.50;;;;;;;;;;5013043;28;20046;-82
2023/12/06 09:37:52;;;;;;;0.85;0.50;;;;;;;;;;5019566;28;20018;-82
2023/12/06 09:40:19;;;;;;;0.95;0.55;;;;;;;;;;5019566;28;20045;-83
2023/12/06 09:42:49;;;;;;;1.10;0.52;;;;;;;;;;5026283;28;20030;-83
2023/12/06 09:45:15;;;;;;;1.08;0.73;;;;;;;;;;5037890;28;20010;-83
2023/12/06 09:47:43;;;;;;;2.67;0.93;;;;;;;;;;5023163;28;20127;-83
2023/12/06 09:50:10;;;;;;;2.10;1.02;;;;;;;;;;5018237;28;20034;-82
2023/12/06 09:52:36;;;;;;;3.00;0.90;;;;;;;;;;5034638;28;20121;-84
2023/12/06 09:55:02;;;;;;;1.50;0.90;;;;;;;;;;5034999;28;20019;-82
2023/12/06 09:57:28;;;;;;;1.17;0.60;;;;;;;;;;5018190;28;20022;-83
2023/12/06 09:59:54;;;;;;;0.75;0.70;;;;;;;;;;5033765;28;20022;-83
2023/12/06 10:02:20;;;;;;;0.80;0.80;;;;;;;;;;5017824;28;20022;-83
2023/12/06 10:04:48;;;;;;;0.70;0.70;;;;;;;;;;5018094;28;20026;-83
2023/12/06 10:07:14;;;;;;;2.60;0.93;;;;;;;;;;5033340;28;20046;-83
2023/12/06 10:09:48;;;;;;;0.65;0.65;;;;;;;;;;5033253;28;20037;-83
2023/12/06 10:12:21;;;;;;;1.77;0.90;;;;;;;;;;5028688;28;20034;-83
2023/12/06 10:14:47;;;;;;;;;;;;;;;;;;5037630;28;20026;-82
2023/12/06 10:17:13;;;;;;;0.45;0.40;;;;;;;;;;5025261;28;19973;-83
2023/12/06 10:19:39;;;;;;;1.88;1.00;;;;;;;;;;5031326;28;20031;-82
2023/12/06 10:22:06;;;;;;;1.02;0.70;;;;;;;;;;5032644;28;20029;-83
2023/12/06 10:24:32;;;;;;;0.80;0.70;;;;;;;;;;5017068;28;20070;-83
2023/12/06 10:27:02;;;;;;;2.38;0.90;;;;;;;;;;5032235;28;20105;-82
2023/12/06 10:29:29;;;;;;;0.73;0.57;;;;;;;;;;5032336;28;20058;-82
2023/12/06 10:31:56;;;;;;;1.80;1.05;;;;;;;;;;5032147;28;20037;-82
2023/12/06 10:34:22;;;;;;;1.15;0.90;;;;;;;;;;5016037;28;20027;-83
2023/12/06 10:36:48;;;;;;;0.82;0.70;;;;;;;;;;5016582;28;20030;-83
2023/12/06 10:39:18;;;;;;;0.90;0.68;;;;;;;;;;5015587;28;20019;-83
2023/12/06 10:41:46;;;;;;;1.73;1.27;;;;;;;;;;5031365;28;20032;-84
2023/12/06 10:44:12;;;;;;;2.15;1.45;;;;;;;;;;5049954;28;20192;-82
2023/12/06 10:46:39;;;;;;;1.67;1.00;;;;;;;;;;5022092;28;20030;-83
2023/12/06 10:49:05;;;;;;;1.85;1.08;;;;;;;;;;5016568;28;20010;-84
2023/12/06 10:51:31;;;;;;;1.25;1.05;;;;;;;;;;5015579;28;20596;-83
2023/12/06 10:53:59;;;;;;;0.98;0.88;;;;;;;;;;5031535;28;20030;-84
2023/12/06 10:56:27;;;;;;;1.88;1.00;;;;;;;;;;5015446;28;20026;-83
2023/12/06 10:58:54;;;;;;;1.88;1.02;;;;;;;;;;5016020;28;20103;-83
2023/12/06 11:01:20;;;;;;;0.90;0.80;;;;;;;;;;5027528;28;20065;-83
2023/12/06 11:03:47;;;;;;;1.02;0.95;;;;;;;;;;5033379;28;20026;-84
2023/12/06 11:06:23;;;;;;;0.70;0.70;;;;;;;;;;5030910;28;20033;-84
2023/12/06 11:09:08;;;;;;;1.10;0.88;;;;;;;;;;5013773;28;20026;-84
2023/12/06 11:11:42;;;;;;;1.00;0.90;;;;;;;;;;5013232;28;20026;-84
2023/12/06 11:14:14;;;;;;;0.90;0.63;;;;;;;;;;5006615;28;20040;-84
2023/12/06 11:16:41;;;;;;;;;;;;;;;;;;5014127;28;20015;-84
2023/12/06 11:19:08;;;;;;;1.17;1.02;;;;;;;;;;5027822;28;19910;-83
2023/12/06 11:21:34;;;;;;;1.75;1.10;;;;;;;;;;5007830;28;20011;-84
2023/12/06 11:24:02;;;;;;;1.05;0.80;;;;;;;;;;5003681;28;20026;-84
2023/12/06 11:26:28;;;;;;;0.98;0.80;;;;;;;;;;5015059;28;20026;-84
2023/12/06 11:28:56;;;;;;;1.15;1.05;;;;;;;;;;5022757;28;20033;-86
2023/12/06 11:31:22;;;;;;;1.33;1.05;;;;;;;;;;5003438;28;20026;-83
2023/12/06 11:33:59;;;;;;;3.00;0.93;;;;;;;;;;5019030;28;20019;-83
2023/12/06 11:36:25;;;;;;;1.08;1.00;;;;;;;;;;5017582;28;20072;-84
2023/12/06 11:38:51;;;;;;;2.05;0.95;;;;;;;;;;5002479;28;20042;-83
2023/12/06 11:41:17;;;;;;;1.23;0.70;;;;;;;;;;5017129;28;20042;-85
2023/12/06 11:43:47;;;;;;;4.32;1.27;;;;;;;;;;5002575;28;20018;-84
2023/12/06 11:46:14;;;;;;;2.15;1.08;;;;;;;;;;5026563;28;20022;-84
2023/12/06 11:48:43;;;;;;;2.08;1.15;;;;;;;;;;5004141;28;20029;-83
2023/12/06 11:51:17;;;;;;;2.70;1.10;;;;;;;;;;5017597;28;20022;-83
2023/12/06 11:53:43;;;;;;;2.25;1.00;;;;;;;;;;5010912;28;20060;-83
2023/12/06 11:56:09;;;;;;;2.65;1.35;;;;;;;;;;5021778;28;20031;-83
2023/12/06 11:58:38;;;;;;;1.13;0.98;;;;;;;;;;5002370;28;20026;-82
2023/12/06 12:01:05;;;;;;;2.25;1.20;;;;;;;;;;5014225;28;20035;-82
2023/12/06 12:03:32;;;;;;;4.78;1.00;;;;;;;;;;5025830;28;20014;-80
2023/12/06 12:05:58;;;;;;;2.00;1.10;;;;;;;;;;5011850;28;20027;-81
2023/12/06 12:08:25;;;;;;;1.45;1.10;;;;;;;;;;5024693;28;20010;-81
2023/12/06 12:10:51;;;;;;;2.55;1.15;;;;;;;;;;5017996;28;20034;-82
2023/12/06 12:13:18;;;;;;;3.72;1.08;;;;;;;;;;5012320;28;20022;-83
2023/12/06 12:18:48;;;;;;;0.93;0.93;;;;;;;;;;5018115;28;20040;-82
2023/12/06 12:21:19;;;;;;;1.42;1.05;;;;;;;;;;5017821;28;20082;-83
2023/12/06 12:23:48;;;;;;;1.95;0.80;;;;;;;;;;5033350;28;20011;-81
2023/12/06 12:26:15;;;;;;;1.20;1.10;;;;;;;;;;5017192;28;20036;-81
2023/12/06 12:28:41;;;;;;;2.15;0.98;;;;;;;;;;5025326;28;20019;-83
2023/12/06 12:31:11;;;;;;;2.72;1.40;;;;;;;;;;5036634;28;20019;-83
2023/12/06 12:33:37;;;;;;;1.35;1.25;;;;;;;;;;5021947;28;20041;-84
2023/12/06 12:36:03;;;;;;;2.85;1.05;;;;;;;;;;5023235;28;20026;-82
2023/12/06 12:38:30;;;;;;;1.73;1.17;;;;;;;;;;5006282;28;20076;-83
2023/12/06 12:40:56;;;;;;;1.33;1.00;;;;;;;;;;5007413;28;20058;-83
2023/12/06 12:43:22;;;;;;;1.33;0.93;;;;;;;;;;4999600;28;20067;-84
2023/12/06 12:45:49;;;;;;;1.27;1.17;;;;;;;;;;5008721;28;20033;-82
2023/12/06 12:48:18;;;;;;;1.73;1.30;;;;;;;;;;5018406;28;20057;-83
2023/12/06 12:50:44;;;;;;;2.75;1.10;;;;;;;;;;5032875;28;20041;-83
2023/12/06 12:53:13;;;;;;;4.10;1.70;;;;;;;;;;5014361;28;20045;-83
2023/12/06 12:55:41;;;;;;;4.10;1.40;;;;;;;;;;5020956;28;20113;-83
2023/12/06 12:58:08;;;;;;;1.30;1.20;;;;;;;;;;5025543;28;20113;-84
2023/12/06 13:00:36;;;;;;;1.48;1.13;;;;;;;;;;5027272;28;20034;-83
2023/12/06 13:03:02;;;;;;;1.75;1.00;;;;;;;;;;5010181;28;20049;-83
2023/12/06 13:05:29;;;;;;;1.25;0.95;;;;;;;;;;5025323;28;20030;-84
2023/12/06 13:07:59;;;;;;;2.70;1.30;;;;;;;;;;4989354;28;20064;-83
2023/12/06 13:10:29;;;;;;;1.75;1.30;;;;;;;;;;5005233;28;20030;-83
2023/12/06 13:12:59;;;;;;;1.77;1.27;;;;;;;;;;5011568;28;20098;-83
2023/12/06 13:15:29;;;;;;;3.13;1.30;;;;;;;;;;5026466;28;20030;-84
2023/12/06 13:17:55;;;;;;;2.15;1.30;;;;;;;;;;5025062;28;20022;-83
2023/12/06 13:20:27;;;;;;;1.83;1.42;;;;;;;;;;5011395;28;20022;-83
2023/12/06 13:22:59;;;;;;;5.73;2.97;;;;;;;;;;5017577;28;20045;-86
2023/12/06 13:25:26;;;;;;;;;;;;;;;;;;5010944;28;20254;-85
2023/12/06 13:27:53;;;;;;;3.63;1.80;;;;;;;;;;5008997;28;19913;-84
2023/12/06 13:30:20;;;;;;;1.83;1.38;;;;;;;;;;5025759;28;20049;-84
2023/12/06 13:32:47;;;;;;;2.22;1.65;;;;;;;;;;5024243;28;20031;-85
2023/12/06 13:35:13;;;;;;;2.72;1.55;;;;;;;;;;5030598;28;20037;-83
2023/12/06 13:37:39;;;;;;;4.07;1.70;;;;;;;;;;5011256;28;20030;-83
2023/12/06 13:40:08;;;;;;;2.90;1.50;;;;;;;;;;5018956;28;20057;-81
2023/12/06 13:42:34;;;;;;;2.53;1.52;;;;;;;;;;5011484;28;20038;-85
2023/12/06 13:45:03;;;;;;;1.88;1.20;;;;;;;;;;5007014;28;20041;-84
2023/12/06 13:47:33;;;;;;;1.88;1.33;;;;;;;;;;5005861;28;20079;-83
2023/12/06 13:50:00;;;;;;;3.05;1.30;;;;;;;;;;5022077;28;20022;-85
2023/12/06 13:52:26;;;;;;;3.60;1.60;;;;;;;;;;5023352;28;20038;-84
2023/12/06 13:54:57;;;;;;;1.10;1.00;;;;;;;;;;5007191;28;20022;-83
2023/12/06 13:57:25;;;;;;;3.58;1.70;;;;;;;;;;5012911;28;20109;-84
2023/12/06 13:59:52;;;;;;;5.47;1.42;;;;;;;;;;5025459;28;20034;-83
2023/12/06 14:02:18;;;;;;;1.38;1.27;;;;;;;;;;5006925;28;20057;-84
2023/12/06 14:04:44;;;;;;;5.18;1.70;;;;;;;;;;5029023;28;20045;-82
2023/12/06 14:07:10;;;;;;;2.63;1.48;;;;;;;;;;5026116;28;20030;-83
2023/12/06 14:09:36;;;;;;;4.70;1.70;;;;;;;;;;5028317;28;20037;-85
2023/12/06 14:12:02;;;;;;;3.45;1.77;;;;;;;;;;5016565;28;20040;-83
2023/12/06 14:14:30;;;;;;;3.10;1.95;;;;;;;;;;5026532;28;20028;-85
2023/12/06 14:16:58;;;;;;;3.45;1.95;;;;;;;;;;5025965;28;20033;-84
2023/12/06 14:19:24;;;;;;;1.95;1.60;;;;;;;;;;5015801;28;20036;-84
2023/12/06 14:21:51;;;;;;;2.60;1.85;;;;;;;;;;5011992;28;20134;-84
2023/12/06 14:24:17;;;;;;;3.08;1.92;;;;;;;;;;5021095;28;20053;-85
2023/12/06 14:26:44;;;;;;;3.08;1.40;;;;;;;;;;5017764;28;20050;-84
2023/12/06 14:29:10;;;;;;;1.48;1.35;;;;;;;;;;5005638;28;20085;-84
2023/12/06 14:31:36;;;;;;;3.47;1.55;;;;;;;;;;5009425;28;20054;-83
2023/12/06 14:34:05;;;;;;;5.25;1.70;;;;;;;;;;5004537;28;20027;-83
2023/12/06 14:36:31;;;;;;;1.65;1.50;;;;;;;;;;5005415;28;20030;-82
2023/12/06 14:38:58;;;;;;;2.72;1.98;;;;;;;;;;5010711;28;20025;-81
2023/12/06 14:41:24;;;;;;;2.80;1.27;;;;;;;;;;5010603;28;20057;-82
2023/12/06 14:43:50;;;;;;;2.17;1.45;;;;;;;;;;5018493;28;20054;-82
2023/12/06 14:46:17;;;;;;;1.95;1.30;;;;;;;;;;5010600;28;20066;-83